Latest Conditions
At L.F.Wade Int. Airport
Recorded at 4:55 am
Mostly Cloudy
Temp.: 
25°C/77°F
Humidity: 
89%
Wind: 
WSW 7KT
or 8mph
Island Observations
Observations
Wednesday, October 01, 2014

Observations are in local time and taken at least once an hour, or upon the start and end of specified events such as showers and thunderstorms.

Time Sky / Weather Wind Speed/Gusts Temp. R.H. Pressure
     knots (mph)  °C (°F)  %  mb / "Hg
 04:55 Mostly Cloudy  WSW 7/0 (8/0) 25(77) 89 1011 / 29.86
 03:55 Mostly Cloudy  SW 5/0 (6/0) 25(78) 88 1011 / 29.86
 02:55 Mostly Cloudy Showers WSW 9/0 (10/0) 25(77) 87 1012 / 29.87
 01:55 Mostly Cloudy Showers WSW 6/0 (7/0) 25(78) 88 1012 / 29.87
 00:55 Mostly Cloudy Showers SW 6/0 (7/0) 25(76) 93 1012 / 29.87
 00:44 Mostly Cloudy Showers SW 9/0 (10/0) 26(79) 85 1012 / 29.87
 00:34 Mostly Cloudy Showers SW 10/0 (12/0) 26(79) 85 1012 / 29.87
 23:55 Mostly Cloudy Showers SW 9/0 (10/0) 26(79) 85 1012 / 29.87
 22:55 Mostly Cloudy Showers SW 10/0 (12/0) 26(79) 85 1012 / 29.87
 21:55 Partly Cloudy  SW 9/0 (10/0) 26(79) 85 1011 / 29.86
 20:55 Partly Cloudy  SW 10/0 (12/0) 26(79) 85 1011 / 29.86
 19:55 Partly Cloudy  SW 10/0 (12/0) 26(79) 85 1010 / 29.84
 18:55 Partly Cloudy Showers SW 11/0 (13/0) 27(80) 82 1010 / 29.83
 17:55 Partly Cloudy Showers SW 12/0 (14/0) 27(81) 81 1010 / 29.83
 16:55 Mostly Cloudy Showers SW 10/0 (12/0) 28(83) 78 1010 / 29.84
 15:55 Partly Cloudy  SW 14/0 (16/0) 28(83) 75 1010 / 29.84
 14:55 Mostly Cloudy  SW 16/0 (18/0) 28(83) 74 1010 / 29.84
 13:55 Mostly Cloudy  W 15/0 (17/0) 28(82) 75 1010 / 29.84
 12:55 Partly Cloudy  SW 17/0 (20/0) 29(83) 71 1011 / 29.86
 11:55 Mostly Cloudy Showers SW 16/0 (18/0) 26(79) 85 1011 / 29.86
 11:46 Mostly Cloudy Showers SW 15/0 (17/0) 28(82) 79 1011 / 29.86
 11:41 Mostly Cloudy Showers SSW 17/0 (20/0) 28(82) 79 1011 / 29.86
 10:55 Mostly Cloudy  SSW 15/0 (17/0) 28(82) 79 1011 / 29.86
 09:55 Mostly Cloudy  SW 15/0 (17/0) 27(80) 78 1011 / 29.86
Observations from our AWOS sites are available here (password and username are both 'guest').